sensor_id;sensor_type;location;lat;lon;timestamp;temperature;humidity
10247;DHT22;5168;47.854;7.944;2023-05-14T00:15:22;5.50;99.90
10247;DHT22;5168;47.854;7.944;2023-05-14T00:17:48;5.70;99.90
10247;DHT22;5168;47.854;7.944;2023-05-14T00:20:13;5.50;99.90
10247;DHT22;5168;47.854;7.944;2023-05-14T00:22:39;5.80;99.90
10247;DHT22;5168;47.854;7.944;2023-05-14T00:25:06;5.80;99.90
10247;DHT22;5168;47.854;7.944;2023-05-14T00:27:32;5.40;99.90
10247;DHT22;5168;47.854;7.944;2023-05-14T00:29:58;5.70;99.90
10247;DHT22;5168;47.854;7.944;2023-05-14T00:39:41;5.60;99.90
10247;DHT22;5168;47.854;7.944;2023-05-14T00:42:07;5.30;99.90
10247;DHT22;5168;47.854;7.944;2023-05-14T00:44:32;5.50;99.90
10247;DHT22;5168;47.854;7.944;2023-05-14T00:46:58;5.30;99.90
10247;DHT22;5168;47.854;7.944;2023-05-14T00:49:24;6.00;99.90
10247;DHT22;5168;47.854;7.944;2023-05-14T00:51:51;5.60;99.90
10247;DHT22;5168;47.854;7.944;2023-05-14T00:54:18;5.00;99.90
10247;DHT22;5168;47.854;7.944;2023-05-14T00:56:45;5.40;99.90
10247;DHT22;5168;47.854;7.944;2023-05-14T00:59:11;5.50;99.90
10247;DHT22;5168;47.854;7.944;2023-05-14T01:01:37;5.40;99.90
10247;DHT22;5168;47.854;7.944;2023-05-14T01:04:03;5.20;99.90
10247;DHT22;5168;47.854;7.944;2023-05-14T01:09:31;5.00;99.90
10247;DHT22;5168;47.854;7.944;2023-05-14T01:12:27;5.30;99.90
10247;DHT22;5168;47.854;7.944;2023-05-14T01:17:32;5.60;99.90
10247;DHT22;5168;47.854;7.944;2023-05-14T01:20:00;5.10;99.90
10247;DHT22;5168;47.854;7.944;2023-05-14T01:22:26;5.50;99.90
10247;DHT22;5168;47.854;7.944;2023-05-14T01:27:46;5.20;99.90
10247;DHT22;5168;47.854;7.944;2023-05-14T01:32:41;5.20;99.90
10247;DHT22;5168;47.854;7.944;2023-05-14T01:35:09;5.50;99.90
10247;DHT22;5168;47.854;7.944;2023-05-14T01:37:35;5.60;99.90
10247;DHT22;5168;47.854;7.944;2023-05-14T01:40:01;5.70;99.90
10247;DHT22;5168;47.854;7.944;2023-05-14T01:42:28;5.30;99.90
10247;DHT22;5168;47.854;7.944;2023-05-14T01:44:54;5.00;99.90
10247;DHT22;5168;47.854;7.944;2023-05-14T01:47:20;5.80;99.90
10247;DHT22;5168;47.854;7.944;2023-05-14T01:49:45;6.30;99.90
10247;DHT22;5168;47.854;7.944;2023-05-14T01:52:11;6.30;99.90
10247;DHT22;5168;47.854;7.944;2023-05-14T01:54:36;5.30;99.90
10247;DHT22;5168;47.854;7.944;2023-05-14T01:57:02;5.90;99.90
10247;DHT22;5168;47.854;7.944;2023-05-14T02:01:54;5.80;99.90
10247;DHT22;5168;47.854;7.944;2023-05-14T02:14:03;6.20;99.90
10247;DHT22;5168;47.854;7.944;2023-05-14T02:16:29;6.30;99.90
10247;DHT22;5168;47.854;7.944;2023-05-14T02:18:54;6.60;99.90
10247;DHT22;5168;47.854;7.944;2023-05-14T02:21:20;6.40;99.90
10247;DHT22;5168;47.854;7.944;2023-05-14T02:26:13;6.40;99.90
10247;DHT22;5168;47.854;7.944;2023-05-14T02:35:57;6.20;99.90
10247;DHT22;5168;47.854;7.944;2023-05-14T02:38:22;6.70;99.90
10247;DHT22;5168;47.854;7.944;2023-05-14T02:40:48;6.70;99.90
10247;DHT22;5168;47.854;7.944;2023-05-14T02:48:05;6.60;99.90
10247;DHT22;5168;47.854;7.944;2023-05-14T02:50:31;6.40;99.90
10247;DHT22;5168;47.854;7.944;2023-05-14T02:52:56;6.50;99.90
10247;DHT22;5168;47.854;7.944;2023-05-14T03:00:18;6.40;99.90
10247;DHT22;5168;47.854;7.944;2023-05-14T03:02:43;6.40;99.90
10247;DHT22;5168;47.854;7.944;2023-05-14T03:05:09;6.70;99.90
10247;DHT22;5168;47.854;7.944;2023-05-14T03:10:00;6.70;99.90
10247;DHT22;5168;47.854;7.944;2023-05-14T03:12:26;6.50;99.90
10247;DHT22;5168;47.854;7.944;2023-05-14T03:14:51;6.70;99.90
10247;DHT22;5168;47.854;7.944;2023-05-14T03:22:09;6.50;99.90
10247;DHT22;5168;47.854;7.944;2023-05-14T03:24:37;6.60;99.90
10247;DHT22;5168;47.854;7.944;2023-05-14T03:27:03;6.90;99.90
10247;DHT22;5168;47.854;7.944;2023-05-14T03:29:29;6.50;99.90
10247;DHT22;5168;47.854;7.944;2023-05-14T03:31:54;6.10;99.90
10247;DHT22;5168;47.854;7.944;2023-05-14T03:34:20;6.10;99.90
10247;DHT22;5168;47.854;7.944;2023-05-14T03:39:12;6.90;99.90
10247;DHT22;5168;47.854;7.944;2023-05-14T03:41:40;6.10;99.90
10247;DHT22;5168;47.854;7.944;2023-05-14T03:44:05;6.50;99.90
10247;DHT22;5168;47.854;7.944;2023-05-14T03:46:31;7.10;99.90
10247;DHT22;5168;47.854;7.944;2023-05-14T03:48:57;6.80;99.90
10247;DHT22;5168;47.854;7.944;2023-05-14T03:53:48;6.80;99.90
10247;DHT22;5168;47.854;7.944;2023-05-14T03:56:14;7.00;99.90
10247;DHT22;5168;47.854;7.944;2023-05-14T03:58:39;6.50;99.90
10247;DHT22;5168;47.854;7.944;2023-05-14T04:05:57;6.80;99.90
10247;DHT22;5168;47.854;7.944;2023-05-14T04:08:22;6.70;99.90
10247;DHT22;5168;47.854;7.944;2023-05-14T04:10:48;6.90;99.90
10247;DHT22;5168;47.854;7.944;2023-05-14T04:13:14;6.70;99.90
10247;DHT22;5168;47.854;7.944;2023-05-14T04:22:57;6.90;99.90
10247;DHT22;5168;47.854;7.944;2023-05-14T04:25:23;6.80;99.90
10247;DHT22;5168;47.854;7.944;2023-05-14T04:27:49;7.10;99.90
10247;DHT22;5168;47.854;7.944;2023-05-14T04:35:07;6.90;99.90
10247;DHT22;5168;47.854;7.944;2023-05-14T04:37:34;6.80;99.90
10247;DHT22;5168;47.854;7.944;2023-05-14T04:40:00;7.20;99.90
10247;DHT22;5168;47.854;7.944;2023-05-14T04:42:25;6.80;99.90
10247;DHT22;5168;47.854;7.944;2023-05-14T04:44:51;6.80;99.90
10247;DHT22;5168;47.854;7.944;2023-05-14T04:47:16;7.20;99.90
10247;DHT22;5168;47.854;7.944;2023-05-14T04:49:42;6.70;99.90
10247;DHT22;5168;47.854;7.944;2023-05-14T04:59:29;7.00;99.90
10247;DHT22;5168;47.854;7.944;2023-05-14T05:01:55;7.20;99.90
10247;DHT22;5168;47.854;7.944;2023-05-14T05:04:20;7.50;99.90
10247;DHT22;5168;47.854;7.944;2023-05-14T05:06:48;7.00;99.90
10247;DHT22;5168;47.854;7.944;2023-05-14T05:09:14;7.20;99.90
10247;DHT22;5168;47.854;7.944;2023-05-14T05:14:06;7.20;99.90
10247;DHT22;5168;47.854;7.944;2023-05-14T05:16:32;7.60;99.90
10247;DHT22;5168;47.854;7.944;2023-05-14T05:18:57;8.00;99.90
10247;DHT22;5168;47.854;7.944;2023-05-14T05:28:41;7.80;99.90
10247;DHT22;5168;47.854;7.944;2023-05-14T05:31:06;8.00;99.90
10247;DHT22;5168;47.854;7.944;2023-05-14T05:33:33;7.30;99.90
10247;DHT22;5168;47.854;7.944;2023-05-14T05:35:59;7.80;99.90
10247;DHT22;5168;47.854;7.944;2023-05-14T05:38:24;8.20;99.90
10247;DHT22;5168;47.854;7.944;2023-05-14T05:40:50;7.80;99.90
10247;DHT22;5168;47.854;7.944;2023-05-14T05:45:41;7.90;99.90
10247;DHT22;5168;47.854;7.944;2023-05-14T05:48:07;8.00;99.90
10247;DHT22;5168;47.854;7.944;2023-05-14T05:50:32;7.80;99.90
10247;DHT22;5168;47.854;7.944;2023-05-14T05:55:24;8.50;99.90
10247;DHT22;5168;47.854;7.944;2023-05-14T05:57:50;8.50;99.90
10247;DHT22;5168;47.854;7.944;2023-05-14T06:00:16;8.40;99.90
10247;DHT22;5168;47.854;7.944;2023-05-14T06:02:42;8.10;99.90
10247;DHT22;5168;47.854;7.944;2023-05-14T06:05:09;8.20;99.90
10247;DHT22;5168;47.854;7.944;2023-05-14T06:07:35;8.20;99.90
10247;DHT22;5168;47.854;7.944;2023-05-14T06:10:00;8.70;99.90
10247;DHT22;5168;47.854;7.944;2023-05-14T06:12:26;8.60;99.90
10247;DHT22;5168;47.854;7.944;2023-05-14T06:14:53;8.50;99.90
10247;DHT22;5168;47.854;7.944;2023-05-14T06:22:11;8.30;99.90
10247;DHT22;5168;47.854;7.944;2023-05-14T06:27:05;8.40;99.90
10247;DHT22;5168;47.854;7.944;2023-05-14T06:29:30;8.40;99.90
10247;DHT22;5168;47.854;7.944;2023-05-14T06:32:02;8.40;99.90
10247;DHT22;5168;47.854;7.944;2023-05-14T06:36:54;8.60;99.90
10247;DHT22;5168;47.854;7.944;2023-05-14T06:39:19;8.60;99.90
10247;DHT22;5168;47.854;7.944;2023-05-14T06:41:45;8.80;99.90
10247;DHT22;5168;47.854;7.944;2023-05-14T06:44:10;8.20;99.90
10247;DHT22;5168;47.854;7.944;2023-05-14T06:46:36;8.30;99.90
10247;DHT22;5168;47.854;7.944;2023-05-14T06:49:02;8.40;99.90
10247;DHT22;5168;47.854;7.944;2023-05-14T06:51:27;8.40;99.90
10247;DHT22;5168;47.854;7.944;2023-05-14T06:53:54;8.50;99.90
10247;DHT22;5168;47.854;7.944;2023-05-14T06:56:20;8.00;99.90
10247;DHT22;5168;47.854;7.944;2023-05-14T06:58:46;9.00;99.90
10247;DHT22;5168;47.854;7.944;2023-05-14T07:01:12;9.20;99.90
10247;DHT22;5168;47.854;7.944;2023-05-14T07:08:31;9.50;99.90
10247;DHT22;5168;47.854;7.944;2023-05-14T07:10:56;10.00;99.90
10247;DHT22;5168;47.854;7.944;2023-05-14T07:15:48;10.80;99.90
10247;DHT22;5168;47.854;7.944;2023-05-14T07:18:14;11.20;99.90
10247;DHT22;5168;47.854;7.944;2023-05-14T07:23:05;11.80;99.90
10247;DHT22;5168;47.854;7.944;2023-05-14T07:25:31;11.80;99.90
10247;DHT22;5168;47.854;7.944;2023-05-14T07:32:49;13.10;99.90
10247;DHT22;5168;47.854;7.944;2023-05-14T07:35:14;12.60;99.90
10247;DHT22;5168;47.854;7.944;2023-05-14T07:37:40;12.60;99.90
10247;DHT22;5168;47.854;7.944;2023-05-14T07:40:07;12.90;99.90
10247;DHT22;5168;47.854;7.944;2023-05-14T07:42:33;12.00;99.90
10247;DHT22;5168;47.854;7.944;2023-05-14T07:44:58;12.60;99.90
10247;DHT22;5168;47.854;7.944;2023-05-14T07:47:24;12.30;99.90
10247;DHT22;5168;47.854;7.944;2023-05-14T07:49:53;12.70;99.90
10247;DHT22;5168;47.854;7.944;2023-05-14T07:52:19;12.70;99.90
10247;DHT22;5168;47.854;7.944;2023-05-14T07:54:44;12.00;99.90
10247;DHT22;5168;47.854;7.944;2023-05-14T07:57:10;12.10;99.90
10247;DHT22;5168;47.854;7.944;2023-05-14T07:59:35;12.70;99.90
10247;DHT22;5168;47.854;7.944;2023-05-14T08:02:01;12.50;99.90
10247;DHT22;5168;47.854;7.944;2023-05-14T08:09:20;12.80;99.90
10247;DHT22;5168;47.854;7.944;2023-05-14T08:11:46;12.90;99.90
10247;DHT22;5168;47.854;7.944;2023-05-14T08:14:11;13.20;99.90
10247;DHT22;5168;47.854;7.944;2023-05-14T08:19:03;12.20;99.90
10247;DHT22;5168;47.854;7.944;2023-05-14T08:21:28;12.00;99.90
10247;DHT22;5168;47.854;7.944;2023-05-14T08:23:54;12.50;99.90
10247;DHT22;5168;47.854;7.944;2023-05-14T08:28:46;12.20;99.90
10247;DHT22;5168;47.854;7.944;2023-05-14T08:31:11;12.20;99.90
10247;DHT22;5168;47.854;7.944;2023-05-14T08:36:05;11.40;99.90
10247;DHT22;5168;47.854;7.944;2023-05-14T08:38:31;11.80;99.90
10247;DHT22;5168;47.854;7.944;2023-05-14T08:40:57;11.50;99.90
10247;DHT22;5168;47.854;7.944;2023-05-14T08:43:30;11.20;99.90
10247;DHT22;5168;47.854;7.944;2023-05-14T08:45:59;11.50;99.90
10247;DHT22;5168;47.854;7.944;2023-05-14T08:48:28;11.10;99.90
10247;DHT22;5168;47.854;7.944;2023-05-14T08:50:56;11.90;99.90
10247;DHT22;5168;47.854;7.944;2023-05-14T08:53:22;11.60;99.90
10247;DHT22;5168;47.854;7.944;2023-05-14T08:55:49;11.50;99.90
10247;DHT22;5168;47.854;7.944;2023-05-14T09:00:41;11.80;99.90
10247;DHT22;5168;47.854;7.944;2023-05-14T09:03:07;12.00;99.90
10247;DHT22;5168;47.854;7.944;2023-05-14T09:05:35;11.50;99.90
10247;DHT22;5168;47.854;7.944;2023-05-14T09:08:01;12.00;99.90
10247;DHT22;5168;47.854;7.944;2023-05-14T09:10:26;11.40;99.90
10247;DHT22;5168;47.854;7.944;2023-05-14T09:15:17;11.80;99.90
10247;DHT22;5168;47.854;7.944;2023-05-14T09:17:43;11.10;99.90
10247;DHT22;5168;47.854;7.944;2023-05-14T09:25:06;11.50;99.90
10247;DHT22;5168;47.854;7.944;2023-05-14T09:27:34;11.50;99.90
10247;DHT22;5168;47.854;7.944;2023-05-14T09:30:12;11.40;99.90
10247;DHT22;5168;47.854;7.944;2023-05-14T09:32:39;11.50;99.90
10247;DHT22;5168;47.854;7.944;2023-05-14T09:35:10;11.60;99.90
10247;DHT22;5168;47.854;7.944;2023-05-14T09:37:36;11.60;99.90
10247;DHT22;5168;47.854;7.944;2023-05-14T09:40:06;11.60;99.90
10247;DHT22;5168;47.854;7.944;2023-05-14T09:44:59;11.60;99.90
10247;DHT22;5168;47.854;7.944;2023-05-14T09:47:24;12.10;99.90
10247;DHT22;5168;47.854;7.944;2023-05-14T09:49:51;12.30;99.90
10247;DHT22;5168;47.854;7.944;2023-05-14T09:52:19;12.00;99.90
10247;DHT22;5168;47.854;7.944;2023-05-14T09:54:45;12.80;99.90
10247;DHT22;5168;47.854;7.944;2023-05-14T09:57:11;13.30;99.90
10247;DHT22;5168;47.854;7.944;2023-05-14T09:59:37;12.60;99.90
10247;DHT22;5168;47.854;7.944;2023-05-14T10:02:04;13.20;99.90
10247;DHT22;5168;47.854;7.944;2023-05-14T10:04:32;13.50;99.90
10247;DHT22;5168;47.854;7.944;2023-05-14T10:06:58;14.10;99.90
10247;DHT22;5168;47.854;7.944;2023-05-14T10:09:26;14.00;99.90
10247;DHT22;5168;47.854;7.944;2023-05-14T10:11:58;14.90;99.90
10247;DHT22;5168;47.854;7.944;2023-05-14T10:14:32;14.70;99.90
10247;DHT22;5168;47.854;7.944;2023-05-14T10:17:00;14.80;99.90
10247;DHT22;5168;47.854;7.944;2023-05-14T10:19:31;15.30;99.90
10247;DHT22;5168;47.854;7.944;2023-05-14T10:22:04;14.90;99.90
10247;DHT22;5168;47.854;7.944;2023-05-14T10:24:31;15.40;99.90
10247;DHT22;5168;47.854;7.944;2023-05-14T10:26:57;15.40;99.90
10247;DHT22;5168;47.854;7.944;2023-05-14T10:29:36;15.70;99.90
10247;DHT22;5168;47.854;7.944;2023-05-14T10:32:06;15.60;99.90
10247;DHT22;5168;47.854;7.944;2023-05-14T10:34:42;15.40;99.90
10247;DHT22;5168;47.854;7.944;2023-05-14T10:37:15;15.60;99.90
10247;DHT22;5168;47.854;7.944;2023-05-14T10:42:17;14.80;99.90
10247;DHT22;5168;47.854;7.944;2023-05-14T10:45:00;15.10;99.90
10247;DHT22;5168;47.854;7.944;2023-05-14T10:47:30;14.30;99.90
10247;DHT22;5168;47.854;7.944;2023-05-14T10:49:58;14.20;99.90
10247;DHT22;5168;47.854;7.944;2023-05-14T10:52:25;14.70;99.90
10247;DHT22;5168;47.854;7.944;2023-05-14T10:55:02;14.30;99.90
10247;DHT22;5168;47.854;7.944;2023-05-14T10:57:29;14.90;99.90
10247;DHT22;5168;47.854;7.944;2023-05-14T10:59:59;14.00;99.90
10247;DHT22;5168;47.854;7.944;2023-05-14T11:02:26;14.10;99.90
10247;DHT22;5168;47.854;7.944;2023-05-14T11:05:03;14.00;99.90
10247;DHT22;5168;47.854;7.944;2023-05-14T11:07:35;14.30;99.90
10247;DHT22;5168;47.854;7.944;2023-05-14T11:10:04;14.20;99.90
10247;DHT22;5168;47.854;7.944;2023-05-14T11:12:32;14.20;99.90
10247;DHT22;5168;47.854;7.944;2023-05-14T11:14:59;14.50;99.90
10247;DHT22;5168;47.854;7.944;2023-05-14T11:17:29;14.70;99.90
10247;DHT22;5168;47.854;7.944;2023-05-14T11:19:55;14.50;99.90
10247;DHT22;5168;47.854;7.944;2023-05-14T11:22:21;14.90;99.90
10247;DHT22;5168;47.854;7.944;2023-05-14T11:24:47;15.30;99.90
10247;DHT22;5168;47.854;7.944;2023-05-14T11:27:12;15.30;99.90
10247;DHT22;5168;47.854;7.944;2023-05-14T11:29:43;14.50;99.90
10247;DHT22;5168;47.854;7.944;2023-05-14T11:32:09;14.70;99.90
10247;DHT22;5168;47.854;7.944;2023-05-14T11:34:35;15.00;99.90
10247;DHT22;5168;47.854;7.944;2023-05-14T11:37:02;15.00;99.90
10247;DHT22;5168;47.854;7.944;2023-05-14T11:39:29;13.20;99.90
10247;DHT22;5168;47.854;7.944;2023-05-14T11:41:56;15.80;99.90
10247;DHT22;5168;47.854;7.944;2023-05-14T11:44:22;15.20;99.90
10247;DHT22;5168;47.854;7.944;2023-05-14T11:46:57;15.40;99.90
10247;DHT22;5168;47.854;7.944;2023-05-14T11:49:24;15.90;99.90
10247;DHT22;5168;47.854;7.944;2023-05-14T11:52:03;15.70;99.90
10247;DHT22;5168;47.854;7.944;2023-05-14T11:54:29;16.30;99.90
10247;DHT22;5168;47.854;7.944;2023-05-14T11:56:55;16.60;99.90
10247;DHT22;5168;47.854;7.944;2023-05-14T11:59:24;17.00;99.90
10247;DHT22;5168;47.854;7.944;2023-05-14T12:01:50;17.90;99.90
10247;DHT22;5168;47.854;7.944;2023-05-14T12:04:18;17.60;99.90
10247;DHT22;5168;47.854;7.944;2023-05-14T12:06:50;18.10;99.90
10247;DHT22;5168;47.854;7.944;2023-05-14T12:09:20;19.00;99.90
10247;DHT22;5168;47.854;7.944;2023-05-14T12:11:47;19.70;99.90
10247;DHT22;5168;47.854;7.944;2023-05-14T12:14:21;19.90;99.90
10247;DHT22;5168;47.854;7.944;2023-05-14T12:16:47;19.50;99.90
10247;DHT22;5168;47.854;7.944;2023-05-14T12:19:14;19.80;99.90
10247;DHT22;5168;47.854;7.944;2023-05-14T12:21:41;19.50;99.90
10247;DHT22;5168;47.854;7.944;2023-05-14T12:24:17;19.30;99.90
10247;DHT22;5168;47.854;7.944;2023-05-14T12:26:48;20.20;99.90
10247;DHT22;5168;47.854;7.944;2023-05-14T12:29:14;20.20;99.90
10247;DHT22;5168;47.854;7.944;2023-05-14T12:31:47;20.00;99.90
10247;DHT22;5168;47.854;7.944;2023-05-14T12:34:14;19.70;99.90
10247;DHT22;5168;47.854;7.944;2023-05-14T12:36:40;18.80;99.90
10247;DHT22;5168;47.854;7.944;2023-05-14T12:39:06;17.60;99.90
10247;DHT22;5168;47.854;7.944;2023-05-14T12:41:32;16.70;99.90
10247;DHT22;5168;47.854;7.944;2023-05-14T12:43:58;15.90;99.90
10247;DHT22;5168;47.854;7.944;2023-05-14T12:46:25;14.80;99.90
10247;DHT22;5168;47.854;7.944;2023-05-14T12:48:52;14.80;99.90
10247;DHT22;5168;47.854;7.944;2023-05-14T12:51:18;13.90;99.90
10247;DHT22;5168;47.854;7.944;2023-05-14T12:53:43;13.80;99.90
10247;DHT22;5168;47.854;7.944;2023-05-14T12:56:09;13.60;99.90
10247;DHT22;5168;47.854;7.944;2023-05-14T12:58:35;12.80;99.90
10247;DHT22;5168;47.854;7.944;2023-05-14T13:01:01;12.70;99.90
10247;DHT22;5168;47.854;7.944;2023-05-14T13:05:53;12.40;99.90
10247;DHT22;5168;47.854;7.944;2023-05-14T13:08:21;12.30;99.90
10247;DHT22;5168;47.854;7.944;2023-05-14T13:10:49;12.50;99.90
10247;DHT22;5168;47.854;7.944;2023-05-14T13:18:07;12.10;99.90
10247;DHT22;5168;47.854;7.944;2023-05-14T13:20:33;11.90;99.90
10247;DHT22;5168;47.854;7.944;2023-05-14T13:27:51;12.10;99.90
10247;DHT22;5168;47.854;7.944;2023-05-14T13:40:02;12.00;99.90
10247;DHT22;5168;47.854;7.944;2023-05-14T13:42:29;12.20;99.90
10247;DHT22;5168;47.854;7.944;2023-05-14T13:44:54;12.70;99.90
10247;DHT22;5168;47.854;7.944;2023-05-14T13:52:12;13.90;99.90
10247;DHT22;5168;47.854;7.944;2023-05-14T13:54:38;14.40;99.90
10247;DHT22;5168;47.854;7.944;2023-05-14T13:57:04;15.40;99.90
10247;DHT22;5168;47.854;7.944;2023-05-14T13:59:29;15.50;99.90
10247;DHT22;5168;47.854;7.944;2023-05-14T14:06:48;15.90;99.90
10247;DHT22;5168;47.854;7.944;2023-05-14T14:09:14;16.40;99.90
10247;DHT22;5168;47.854;7.944;2023-05-14T14:14:05;16.80;99.90
10247;DHT22;5168;47.854;7.944;2023-05-14T14:16:31;16.50;99.90
10247;DHT22;5168;47.854;7.944;2023-05-14T14:18:56;16.60;99.90
10247;DHT22;5168;47.854;7.944;2023-05-14T14:21:22;16.40;99.90
10247;DHT22;5168;47.854;7.944;2023-05-14T14:23:47;16.40;99.90
10247;DHT22;5168;47.854;7.944;2023-05-14T14:26:13;17.00;99.90
10247;DHT22;5168;47.854;7.944;2023-05-14T14:28:39;16.80;99.90
10247;DHT22;5168;47.854;7.944;2023-05-14T14:31:05;16.90;99.90
10247;DHT22;5168;47.854;7.944;2023-05-14T14:38:23;17.10;99.90
10247;DHT22;5168;47.854;7.944;2023-05-14T14:40:48;16.60;99.90
10247;DHT22;5168;47.854;7.944;2023-05-14T14:43:14;16.50;99.90
10247;DHT22;5168;47.854;7.944;2023-05-14T14:45:39;16.30;99.90
10247;DHT22;5168;47.854;7.944;2023-05-14T14:48:32;15.30;99.90
10247;DHT22;5168;47.854;7.944;2023-05-14T14:58:20;14.40;99.90
10247;DHT22;5168;47.854;7.944;2023-05-14T15:00:47;13.70;99.90
10247;DHT22;5168;47.854;7.944;2023-05-14T15:03:12;13.80;99.90
10247;DHT22;5168;47.854;7.944;2023-05-14T15:05:39;14.00;99.90
10247;DHT22;5168;47.854;7.944;2023-05-14T15:08:04;14.60;99.90
10247;DHT22;5168;47.854;7.944;2023-05-14T15:10:30;14.60;99.90
10247;DHT22;5168;47.854;7.944;2023-05-14T15:12:57;14.60;99.90
10247;DHT22;5168;47.854;7.944;2023-05-14T15:15:23;15.40;99.90
10247;DHT22;5168;47.854;7.944;2023-05-14T15:17:49;15.60;99.90
10247;DHT22;5168;47.854;7.944;2023-05-14T15:20:15;15.30;99.90
10247;DHT22;5168;47.854;7.944;2023-05-14T15:22:41;15.70;99.90
10247;DHT22;5168;47.854;7.944;2023-05-14T15:25:07;15.90;99.90
10247;DHT22;5168;47.854;7.944;2023-05-14T15:29:59;16.40;99.90
10247;DHT22;5168;47.854;7.944;2023-05-14T15:37:18;16.10;99.90
10247;DHT22;5168;47.854;7.944;2023-05-14T15:39:44;15.80;99.90
10247;DHT22;5168;47.854;7.944;2023-05-14T15:44:35;16.50;99.90
10247;DHT22;5168;47.854;7.944;2023-05-14T15:47:01;16.10;99.90
10247;DHT22;5168;47.854;7.944;2023-05-14T15:49:27;16.40;99.90
10247;DHT22;5168;47.854;7.944;2023-05-14T15:51:53;16.10;99.90
10247;DHT22;5168;47.854;7.944;2023-05-14T15:54:18;16.00;99.90
10247;DHT22;5168;47.854;7.944;2023-05-14T16:01:38;15.70;99.90
10247;DHT22;5168;47.854;7.944;2023-05-14T16:04:04;15.90;99.90
10247;DHT22;5168;47.854;7.944;2023-05-14T16:06:29;16.10;99.90
10247;DHT22;5168;47.854;7.944;2023-05-14T16:08:55;16.00;99.90
10247;DHT22;5168;47.854;7.944;2023-05-14T16:11:21;15.80;99.90
10247;DHT22;5168;47.854;7.944;2023-05-14T16:13:47;15.40;99.90
10247;DHT22;5168;47.854;7.944;2023-05-14T16:16:12;15.60;99.90
10247;DHT22;5168;47.854;7.944;2023-05-14T16:18:38;15.20;99.90
10247;DHT22;5168;47.854;7.944;2023-05-14T16:21:04;15.10;99.90
10247;DHT22;5168;47.854;7.944;2023-05-14T16:23:30;14.70;99.90
10247;DHT22;5168;47.854;7.944;2023-05-14T16:25:56;14.80;99.90
10247;DHT22;5168;47.854;7.944;2023-05-14T16:35:41;14.00;99.90
10247;DHT22;5168;47.854;7.944;2023-05-14T16:38:07;14.30;99.90
10247;DHT22;5168;47.854;7.944;2023-05-14T16:40:32;14.60;99.90
10247;DHT22;5168;47.854;7.944;2023-05-14T16:42:58;14.30;99.90
10247;DHT22;5168;47.854;7.944;2023-05-14T16:45:23;14.50;99.90
10247;DHT22;5168;47.854;7.944;2023-05-14T16:47:49;14.10;99.90
10247;DHT22;5168;47.854;7.944;2023-05-14T16:52:40;13.60;99.90
10247;DHT22;5168;47.854;7.944;2023-05-14T16:55:06;14.30;99.90
10247;DHT22;5168;47.854;7.944;2023-05-14T16:57:32;14.10;99.90
10247;DHT22;5168;47.854;7.944;2023-05-14T16:59:58;13.30;99.90
10247;DHT22;5168;47.854;7.944;2023-05-14T17:02:24;13.40;99.90
10247;DHT22;5168;47.854;7.944;2023-05-14T17:04:49;13.10;99.90
10247;DHT22;5168;47.854;7.944;2023-05-14T17:07:15;13.30;99.90
10247;DHT22;5168;47.854;7.944;2023-05-14T17:09:41;12.90;99.90
10247;DHT22;5168;47.854;7.944;2023-05-14T17:12:06;12.90;99.90
10247;DHT22;5168;47.854;7.944;2023-05-14T17:21:50;13.10;99.90
10247;DHT22;5168;47.854;7.944;2023-05-14T17:24:15;12.80;99.90
10247;DHT22;5168;47.854;7.944;2023-05-14T17:26:41;13.00;99.90
10247;DHT22;5168;47.854;7.944;2023-05-14T17:29:06;12.20;99.90
10247;DHT22;5168;47.854;7.944;2023-05-14T17:31:32;12.80;99.90
10247;DHT22;5168;47.854;7.944;2023-05-14T17:33:57;12.70;99.90
10247;DHT22;5168;47.854;7.944;2023-05-14T17:43:41;12.60;99.90
10247;DHT22;5168;47.854;7.944;2023-05-14T17:46:06;12.00;99.90
10247;DHT22;5168;47.854;7.944;2023-05-14T17:48:32;11.90;99.90
10247;DHT22;5168;47.854;7.944;2023-05-14T17:53:23;11.80;99.90
10247;DHT22;5168;47.854;7.944;2023-05-14T17:55:49;11.70;99.90
10247;DHT22;5168;47.854;7.944;2023-05-14T17:58:14;11.70;99.90
10247;DHT22;5168;47.854;7.944;2023-05-14T18:03:06;11.40;99.90
10247;DHT22;5168;47.854;7.944;2023-05-14T18:17:45;11.30;99.90
10247;DHT22;5168;47.854;7.944;2023-05-14T18:20:10;11.00;99.90
10247;DHT22;5168;47.854;7.944;2023-05-14T18:22:36;11.20;99.90
10247;DHT22;5168;47.854;7.944;2023-05-14T18:25:02;11.30;99.90
10247;DHT22;5168;47.854;7.944;2023-05-14T18:27:28;11.20;99.90
10247;DHT22;5168;47.854;7.944;2023-05-14T18:29:54;10.90;99.90
10247;DHT22;5168;47.854;7.944;2023-05-14T18:34:46;11.10;99.90
10247;DHT22;5168;47.854;7.944;2023-05-14T18:46:56;10.40;99.90
10247;DHT22;5168;47.854;7.944;2023-05-14T18:49:23;10.40;99.90
10247;DHT22;5168;47.854;7.944;2023-05-14T18:51:49;10.20;99.90
10247;DHT22;5168;47.854;7.944;2023-05-14T18:59:09;9.90;99.90
10247;DHT22;5168;47.854;7.944;2023-05-14T19:04:01;10.10;99.90
10247;DHT22;5168;47.854;7.944;2023-05-14T19:06:26;9.70;99.90
10247;DHT22;5168;47.854;7.944;2023-05-14T19:08:52;9.60;99.90
10247;DHT22;5168;47.854;7.944;2023-05-14T19:11:17;9.80;99.90
10247;DHT22;5168;47.854;7.944;2023-05-14T19:16:11;9.50;99.90
10247;DHT22;5168;47.854;7.944;2023-05-14T19:18:37;9.90;99.90
10247;DHT22;5168;47.854;7.944;2023-05-14T19:21:05;9.90;99.90
10247;DHT22;5168;47.854;7.944;2023-05-14T19:23:31;9.40;99.90
10247;DHT22;5168;47.854;7.944;2023-05-14T19:25:57;9.50;99.90
10247;DHT22;5168;47.854;7.944;2023-05-14T19:28:22;9.40;99.90
10247;DHT22;5168;47.854;7.944;2023-05-14T19:30:49;9.50;99.90
10247;DHT22;5168;47.854;7.944;2023-05-14T19:33:18;9.80;99.90
10247;DHT22;5168;47.854;7.944;2023-05-14T19:35:43;9.60;99.90
10247;DHT22;5168;47.854;7.944;2023-05-14T19:38:09;9.60;99.90
10247;DHT22;5168;47.854;7.944;2023-05-14T19:47:52;9.60;99.90
10247;DHT22;5168;47.854;7.944;2023-05-14T19:50:18;9.50;99.90
10247;DHT22;5168;47.854;7.944;2023-05-14T19:52:44;9.30;99.90
10247;DHT22;5168;47.854;7.944;2023-05-14T20:00:04;9.40;99.90
10247;DHT22;5168;47.854;7.944;2023-05-14T20:02:30;9.30;99.90
10247;DHT22;5168;47.854;7.944;2023-05-14T20:07:22;9.00;99.90
10247;DHT22;5168;47.854;7.944;2023-05-14T20:09:49;9.00;99.90
10247;DHT22;5168;47.854;7.944;2023-05-14T20:12:14;9.00;99.90
10247;DHT22;5168;47.854;7.944;2023-05-14T20:14:41;8.90;99.90
10247;DHT22;5168;47.854;7.944;2023-05-14T20:26:50;9.20;99.90
10247;DHT22;5168;47.854;7.944;2023-05-14T20:29:16;9.00;99.90
10247;DHT22;5168;47.854;7.944;2023-05-14T20:31:44;9.20;99.90
10247;DHT22;5168;47.854;7.944;2023-05-14T20:34:10;8.70;99.90
10247;DHT22;5168;47.854;7.944;2023-05-14T20:36:35;8.80;99.90
10247;DHT22;5168;47.854;7.944;2023-05-14T20:41:30;9.10;99.90
10247;DHT22;5168;47.854;7.944;2023-05-14T20:43:56;9.10;99.90
10247;DHT22;5168;47.854;7.944;2023-05-14T20:46:23;8.70;99.90
10247;DHT22;5168;47.854;7.944;2023-05-14T20:48:53;8.80;99.90
10247;DHT22;5168;47.854;7.944;2023-05-14T20:51:19;8.70;99.90
10247;DHT22;5168;47.854;7.944;2023-05-14T20:53:46;9.00;99.90
10247;DHT22;5168;47.854;7.944;2023-05-14T20:56:14;8.10;99.90
10247;DHT22;5168;47.854;7.944;2023-05-14T21:03:35;9.10;99.90
10247;DHT22;5168;47.854;7.944;2023-05-14T21:06:01;9.30;99.90
10247;DHT22;5168;47.854;7.944;2023-05-14T21:08:28;9.00;99.90
10247;DHT22;5168;47.854;7.944;2023-05-14T21:10:54;8.60;99.90